LIPL/QBS METAR and TAF weather

Enter ICAO airport designator
Station Type Date Time Source
LIPL METAR 2022/11/26 07:55 UTC NOAA

LIPL 260755Z 23005KT CAVOK 04/02 Q1023


Station Type Date Time Source
LIPL Decoded METAR 2022/11/26 07:55 UTC NOAA

Brescia / Ghedi, Italy (LIPL) 45-25N 010-17E 97M
Nov 26, 2022 - 02:55 AM EST / 2022.11.26 0755 UTC
Wind: from the SW (230 degrees) at 6 MPH (5 KT):0
Visibility: greater than 7 mile(s):0
Temperature: 39 F (4 C)
Dew Point: 35 F (2 C)
Relative Humidity: 86%
Pressure (altimeter): 30.21 in. Hg (1023 hPa)
ob: LIPL 260755Z 23005KT CAVOK 04/02 Q1023
cycle: 8

Station Type Date Time Source
LIPL TAF 2022/11/21 09:24 UTC NOAA

TAF TAF COR LIPL 210800Z 2109/2121 24003KT 8000 NSC
TEMPO 2109/2111 4000 BR

Example: see airport list